createdAt,value
2023-04-01T00:02:30.129Z,84.03
2023-04-01T00:07:32.872Z,80.13
2023-04-01T00:12:35.689Z,78.16
2023-04-01T00:17:38.703Z,77.31
2023-04-01T00:22:42.005Z,77.71
2023-04-01T00:27:44.252Z,79.01
2023-04-01T00:32:46.865Z,79.96
2023-04-01T00:37:49.642Z,81.20
2023-04-01T00:42:51.865Z,80.28
2023-04-01T00:47:54.488Z,80.52
2023-04-01T00:52:56.991Z,79.34
2023-04-01T00:58:01.160Z,78.22
2023-04-01T01:03:05.207Z,77.20
2023-04-01T01:08:16.749Z,76.94
2023-04-01T01:13:23.073Z,76.92
2023-04-01T01:18:42.331Z,76.46
2023-04-01T01:24:04.262Z,75.87
2023-04-01T01:29:15.685Z,76.53
2023-04-01T01:34:24.422Z,77.26
2023-04-01T01:39:30.286Z,76.17
2023-04-01T01:44:34.909Z,75.73
2023-04-01T01:49:39.503Z,75.41
2023-04-01T01:54:52.490Z,76.41
2023-04-01T01:59:59.807Z,76.76
2023-04-01T02:05:03.973Z,76.62
2023-04-01T02:10:07.479Z,75.29
2023-04-01T02:15:13.524Z,74.89
2023-04-01T02:20:22.497Z,74.24
2023-04-01T02:25:29.507Z,72.79
2023-04-01T02:30:34.533Z,71.26
2023-04-01T02:35:38.644Z,70.85
2023-04-01T02:40:51.889Z,71.43
2023-04-01T02:45:54.630Z,70.96
2023-04-01T02:50:57.256Z,71.40
2023-04-01T02:55:59.485Z,72.17
2023-04-01T03:01:01.834Z,72.93
2023-04-01T03:06:13.762Z,73.21
2023-04-01T03:11:16.041Z,73.15
2023-04-01T03:16:18.368Z,73.55
2023-04-01T03:21:24.824Z,73.90
2023-04-01T03:26:30.204Z,74.51
2023-04-01T03:31:32.666Z,75.26
2023-04-01T03:36:34.967Z,75.73
2023-04-01T03:41:39.370Z,76.55
2023-04-01T03:46:42.164Z,77.06
2023-04-01T03:51:44.947Z,76.98
2023-04-01T03:56:47.808Z,77.08
2023-04-01T04:01:50.067Z,78.18
2023-04-01T04:06:52.310Z,78.38
2023-04-01T04:11:54.643Z,80.20
2023-04-01T04:16:56.832Z,79.70
2023-04-01T04:22:01.725Z,78.23
2023-04-01T04:27:04.523Z,77.70
2023-04-01T04:32:06.975Z,78.64
2023-04-01T04:37:09.388Z,78.87
2023-04-01T04:42:11.567Z,78.96
2023-04-01T04:47:15.532Z,78.13
2023-04-01T04:52:17.805Z,77.29
2023-04-01T04:57:20.064Z,76.61
2023-04-01T05:02:24.874Z,76.49
2023-04-01T05:07:28.730Z,76.19
2023-04-01T05:12:30.962Z,75.92
2023-04-01T05:17:34.455Z,75.43
2023-04-01T05:22:36.654Z,74.97
2023-04-01T05:27:38.909Z,74.61
2023-04-01T05:32:41.329Z,73.49
2023-04-01T05:37:43.531Z,72.70
2023-04-01T05:42:45.897Z,71.83
2023-04-01T05:47:48.091Z,70.88
2023-04-01T05:52:50.345Z,70.20
2023-04-01T05:57:52.515Z,69.50
2023-04-01T06:02:55.606Z,68.14
2023-04-01T06:08:05.193Z,66.78
2023-04-01T06:13:26.343Z,65.79
2023-04-01T06:18:51.056Z,64.86
2023-04-01T06:23:59.053Z,63.97
2023-04-01T06:29:29.971Z,64.14
2023-04-01T06:34:50.777Z,64.22
2023-04-01T06:40:26.774Z,63.75
2023-04-01T06:45:32.467Z,63.58
2023-04-01T06:51:05.741Z,64.07
2023-04-01T06:56:20.710Z,63.67
2023-04-01T07:01:49.754Z,63.41
2023-04-01T07:06:57.071Z,63.33
2023-04-01T07:12:07.317Z,62.94
2023-04-01T07:17:25.710Z,62.15
2023-04-01T07:22:39.236Z,61.02
2023-04-01T07:27:45.668Z,60.64
2023-04-01T07:33:00.628Z,59.82
2023-04-01T07:38:43.048Z,58.54
2023-04-01T07:43:54.389Z,57.64
2023-04-01T07:49:19.374Z,57.06
2023-04-01T07:54:41.785Z,55.68
2023-04-01T08:00:15.614Z,55.16
2023-04-01T08:05:27.081Z,54.27
2023-04-01T08:10:53.698Z,51.84
2023-04-01T08:16:17.347Z,51.89
2023-04-01T08:21:31.435Z,49.56
2023-04-01T08:26:41.593Z,47.53
2023-04-01T08:31:56.305Z,47.33
2023-04-01T08:37:04.317Z,47.00
2023-04-01T08:42:37.805Z,46.75
2023-04-01T08:48:20.896Z,48.36
2023-04-01T08:54:02.461Z,47.03
2023-04-01T08:59:20.051Z,49.54
2023-04-01T09:04:34.580Z,49.32
2023-04-01T09:10:14.382Z,48.73
2023-04-01T09:15:28.878Z,47.22
2023-04-01T09:21:08.881Z,47.93
2023-04-01T09:26:38.921Z,44.83
2023-04-01T09:32:06.984Z,40.09
2023-04-01T09:37:39.987Z,41.32
2023-04-01T09:43:07.581Z,46.47
2023-04-01T09:48:18.966Z,51.31
2023-04-01T09:53:37.745Z,54.09
2023-04-01T09:58:58.461Z,55.14
2023-04-01T10:04:06.055Z,55.47
2023-04-01T10:09:39.080Z,54.34
2023-04-01T10:15:25.676Z,53.44
2023-04-01T10:20:57.576Z,52.00
2023-04-01T10:26:16.821Z,52.62
2023-04-01T10:31:35.474Z,55.33
2023-04-01T10:37:17.416Z,56.05
2023-04-01T10:42:56.940Z,56.07
2023-04-01T10:48:23.483Z,54.53
2023-04-01T10:54:08.000Z,53.51
2023-04-01T10:59:25.208Z,52.84
2023-04-01T11:04:55.393Z,50.25
2023-04-01T11:10:13.605Z,51.26
2023-04-01T11:15:31.256Z,51.33
2023-04-01T11:21:04.781Z,50.15
2023-04-01T11:26:32.255Z,47.18
2023-04-01T11:32:19.403Z,43.48
2023-04-01T11:37:56.058Z,49.74
2023-04-01T11:43:35.913Z,53.27
2023-04-01T11:49:05.802Z,54.65
2023-04-01T11:54:19.742Z,55.54
2023-04-01T11:59:41.582Z,56.18
2023-04-01T12:05:09.087Z,56.80
2023-04-01T12:10:42.994Z,54.55
2023-04-01T12:16:22.679Z,51.08
2023-04-01T12:21:43.479Z,46.21
2023-04-01T12:27:31.484Z,45.49
2023-04-01T12:32:55.233Z,45.11
2023-04-01T12:38:34.761Z,47.16
2023-04-01T12:43:58.350Z,48.06
2023-04-01T12:49:06.630Z,41.37
2023-04-01T12:54:36.729Z,33.84
2023-04-01T12:59:38.814Z,31.05
2023-04-01T13:04:46.777Z,35.79
2023-04-01T13:10:05.074Z,35.12
2023-04-01T13:15:09.967Z,27.67
2023-04-01T13:20:38.440Z,26.56
2023-04-01T13:26:07.071Z,24.36
2023-04-01T13:31:24.602Z,26.61
2023-04-01T13:36:42.872Z,25.76
2023-04-01T13:42:14.431Z,25.07
2023-04-01T13:47:48.905Z,25.97
2023-04-01T13:53:08.182Z,26.08
2023-04-01T13:58:33.484Z,28.63
2023-04-01T14:04:10.755Z,25.83
2023-04-01T14:09:37.366Z,29.21
2023-04-01T14:14:48.746Z,35.78
2023-04-01T14:20:08.676Z,33.33
2023-04-01T14:25:19.620Z,27.73
2023-04-01T14:30:24.780Z,26.75
2023-04-01T14:35:47.555Z,26.72
2023-04-01T14:41:03.922Z,27.01
2023-04-01T14:46:24.877Z,29.63
2023-04-01T14:51:34.959Z,27.55
2023-04-01T14:56:37.088Z,27.65
2023-04-01T15:02:07.855Z,28.97
2023-04-01T15:07:47.636Z,30.55
2023-04-01T15:13:11.353Z,35.16
2023-04-01T15:18:13.569Z,41.15
2023-04-01T15:23:30.508Z,37.75
2023-04-01T15:29:08.813Z,36.09
2023-04-01T15:34:47.109Z,34.39
2023-04-01T15:39:58.529Z,33.01
2023-04-01T15:45:27.380Z,37.78
2023-04-01T15:50:32.678Z,40.68
2023-04-01T15:56:00.608Z,41.90
2023-04-01T16:01:17.396Z,42.04
2023-04-01T16:06:46.813Z,40.80
2023-04-01T16:11:48.879Z,40.18
2023-04-01T16:16:56.757Z,41.01
2023-04-01T16:22:32.137Z,41.10
2023-04-01T16:27:56.230Z,40.41
2023-04-01T16:33:14.487Z,40.98
2023-04-01T16:38:37.434Z,41.36
2023-04-01T16:43:48.891Z,42.72
2023-04-01T16:49:15.012Z,44.82
2023-04-01T16:54:29.142Z,46.86
2023-04-01T16:59:58.856Z,48.29
2023-04-01T17:05:13.014Z,49.53
2023-04-01T17:10:37.292Z,50.42
2023-04-01T17:15:53.694Z,51.25
2023-04-01T17:21:22.186Z,52.56
2023-04-01T17:26:33.274Z,53.32
2023-04-01T17:32:03.821Z,54.09
2023-04-01T17:37:32.980Z,55.00
2023-04-01T17:42:55.368Z,55.77
2023-04-01T17:48:16.437Z,56.05
2023-04-01T17:53:44.610Z,56.64
2023-04-01T17:59:28.659Z,56.35
2023-04-01T18:04:53.640Z,57.30
2023-04-01T18:10:02.643Z,58.53
2023-04-01T18:15:27.808Z,58.49
2023-04-01T18:20:48.033Z,58.46
2023-04-01T18:25:56.586Z,57.94
2023-04-01T18:31:06.955Z,59.28
2023-04-01T18:36:17.360Z,59.10
2023-04-01T18:41:44.076Z,59.10
2023-04-01T18:47:03.765Z,58.72
2023-04-01T18:52:34.801Z,58.55
2023-04-01T18:57:51.476Z,59.30
2023-04-01T19:02:59.907Z,59.74
2023-04-01T19:08:31.917Z,60.06
2023-04-01T19:13:48.083Z,60.38
2023-04-01T19:19:16.244Z,60.79
2023-04-01T19:25:16.724Z,61.05
2023-04-01T19:30:57.640Z,60.79
2023-04-01T19:36:21.906Z,60.66
2023-04-01T19:41:45.651Z,61.67
2023-04-01T19:46:54.569Z,62.01
2023-04-01T19:52:29.086Z,61.66
2023-04-01T19:57:43.609Z,62.19
2023-04-01T20:03:02.403Z,62.94
2023-04-01T20:08:27.098Z,63.31
2023-04-01T20:13:38.423Z,64.06
2023-04-01T20:18:50.563Z,64.81
2023-04-01T20:24:14.510Z,65.17
2023-04-01T20:29:16.589Z,65.63
2023-04-01T20:34:34.383Z,67.06
2023-04-01T20:39:36.928Z,68.42
2023-04-01T20:44:43.100Z,68.77
2023-04-01T20:50:01.545Z,69.35
2023-04-01T20:55:22.113Z,69.34
2023-04-01T21:00:53.512Z,70.06
2023-04-01T21:06:16.986Z,71.33
2023-04-01T21:11:56.317Z,71.03
2023-04-01T21:17:01.129Z,71.17
2023-04-01T21:22:24.499Z,71.66
2023-04-01T21:27:48.962Z,71.36
2023-04-01T21:33:17.450Z,71.92
2023-04-01T21:38:28.792Z,72.50
2023-04-01T21:43:53.622Z,73.06
2023-04-01T21:49:38.530Z,73.27
2023-04-01T21:55:08.356Z,72.95
2023-04-01T22:00:18.569Z,69.63
2023-04-01T22:05:48.511Z,67.50
2023-04-01T22:10:59.916Z,65.85
2023-04-01T22:16:26.934Z,65.65
2023-04-01T22:21:39.316Z,65.58
2023-04-01T22:26:50.594Z,65.62
2023-04-01T22:32:09.345Z,66.15
2023-04-01T22:37:29.752Z,66.29
2023-04-01T22:43:09.111Z,67.20
2023-04-01T22:48:30.041Z,68.24
2023-04-01T22:54:17.276Z,68.33
2023-04-01T22:59:25.296Z,68.52
2023-04-01T23:04:34.763Z,69.04
2023-04-01T23:09:38.746Z,69.75
2023-04-01T23:14:47.613Z,70.52
2023-04-01T23:19:58.605Z,70.79
2023-04-01T23:25:21.924Z,70.83
2023-04-01T23:30:39.440Z,70.87
2023-04-01T23:35:55.042Z,71.35
2023-04-01T23:40:57.229Z,70.87
2023-04-01T23:46:05.224Z,71.43
2023-04-01T23:51:39.790Z,72.27
2023-04-01T23:56:47.441Z,73.20
